Latest Coastal Weather Observations for Strahan

IDT60701

Issued at 3:12 am EST Tuesday 23 May 2017 (issued every 10 minutes, with the page automatically refreshed every 10 minutes)

About coastal observations | Map of coastal stations | Coastal observations for TAS | Marine services | Other Formats
Station Details ID: 097072 Name: STRAHAN AERODROME Lat: -42.16 Lon: 145.29 Height: 21.0 m
Data from the previous 72 hours. | See also: Recent months at Strahan
Date/Time
EST
Temp
°C
Wind Pressure Rain since
9am
mm
Weather Cloud Vis
km
Sea
Height
m
Swell
Dir  Spd
kts
Gust
kts
hPa Trend Height
m
Period
s
Dir
23/03:00am 14.6 NNE 11 19 1012.8 - 0.6 Recent precip. Cloudy 10 - - - -
23/02:30am 15.1 N 17 25 1013.2 - 0.4 - Partly cloudy 10 - - - -
23/02:11am 16.2 NNE 17 27 1013.0 - 0.0 - Partly cloudy 10 - - - -
23/02:00am 16.0 NNE 15 24 1013.0 - 0.0 - Partly cloudy 10 - - - -
23/01:30am 15.7 NNE 14 22 1013.1 - 0.0 - - 10 - - - -
23/01:00am 15.4 NNE 14 22 1013.6 - 0.0 - Partly cloudy 10 - - - -
23/12:30am 16.0 NNE 15 23 1014.4 - 0.0 - Partly cloudy 10 - - - -
23/12:18am 16.1 NNE 15 26 1014.4 - 0.0 - Cloudy 10 - - - -
23/12:00am 16.0 NNE 15 21 1014.6 - 0.0 - Mostly cloudy 10 - - - -
 
Date/Time
EST
Temp
°C
Wind Pressure Rain since
9am
mm
Weather Cloud Vis
km
Sea
Height
m
Swell
Dir  Spd
kts
Gust
kts
hPa Trend Height
m
Period
s
Dir
22/11:30pm 15.9 NNE 14 21 1014.7 - 0.0 - Partly cloudy 10 - - - -
22/11:00pm 15.9 NNE 16 23 1014.8 - 0.0 - Partly cloudy 10 - - - -
22/10:30pm 16.0 NNE 17 25 1015.2 - 0.0 - Cloudy 10 - - - -
22/10:00pm 15.6 NNE 14 22 1015.3 - 0.0 - Partly cloudy 10 - - - -
22/09:30pm 16.0 NNE 15 23 1015.0 - 0.0 - Partly cloudy 10 - - - -
22/09:00pm 15.8 NNE 13 20 1014.7 - 0.0 - Cloudy 10 - - - -
22/08:30pm 15.8 NNE 14 20 1014.8 - 0.0 - - 10 - - - -
22/08:00pm 15.5 NNE 13 21 1015.1 - 0.0 - - 10 - - - -
22/07:30pm 15.4 NNE 11 17 1015.3 - 0.0 - - 10 - - - -
22/07:00pm 15.3 NNE 10 13 1015.3 - 0.0 - - 10 - - - -
22/06:30pm 15.2 NNE 10 13 1015.3 - 0.0 - - 10 - - - -
22/06:00pm 15.2 NNE 10 14 1015.3 - 0.0 - Mostly clear 10 - - - -
22/05:30pm 15.1 NNE 9 12 1015.5 - 0.0 - - 10 - - - -
22/05:00pm 15.9 NNE 8 11 1015.7 - 0.0 - - 10 - - - -
22/04:30pm 16.8 N 8 11 1015.6 - 0.0 - Partly cloudy 10 - - - -
22/04:00pm 17.1 N 7 10 1015.6 - 0.0 - - 10 - - - -
22/03:30pm 18.4 NNE 9 14 1015.7 - 0.0 - - 10 - - - -
22/03:00pm 19.1 N 9 14 1015.8 - 0.0 - - 10 - - - -
22/02:30pm 19.2 NNE 11 16 1015.9 - 0.0 - - 10 - - - -
22/02:00pm 19.7 N 10 14 1016.1 - 0.0 - - 10 - - - -
22/01:30pm 19.7 N 10 14 1016.5 - 0.0 - - 10 - - - -
22/01:00pm 19.2 N 9 17 1017.0 - 0.0 - - 10 - - - -
22/12:30pm 18.9 N 10 14 1017.3 - 0.0 - - 10 - - - -
22/12:00pm 18.8 N 10 14 1017.7 - 0.0 - Mostly clear 10 - - - -
22/11:30am 18.6 N 9 13 1018.1 - 0.0 - Partly cloudy 10 - - - -
22/11:00am 18.0 N 9 13 1018.5 - 0.0 - - 10 - - - -
22/10:30am 17.9 N 7 10 1018.7 - 0.0 - - 10 - - - -
22/10:00am 16.7 N 8 11 1018.8 - 0.0 - - 10 - - - -
22/09:30am 15.5 NNE 6 9 1019.1 - 0.0 - - 10 - - - -
22/09:00am 14.3 NNE 6 8 1019.2 - 0.4 - - 10 - - - -
22/08:30am 13.1 NNE 7 9 1019.0 - 0.4 - - 10 - - - -
22/08:00am 12.3 NNE 7 9 1018.8 - 0.4 - - 10 - - - -
22/07:30am 12.6 NNE 8 11 1018.5 - 0.4 - - 10 - - - -
22/07:00am 12.3 NNE 7 9 1018.4 - 0.4 - Partly cloudy 10 - - - -
22/06:30am 12.4 NNE 7 9 1018.3 - 0.4 - Cloudy 10 - - - -
22/06:00am 12.2 NNE 7 9 1018.3 - 0.4 - Partly cloudy 10 - - - -
22/05:30am 12.3 NNE 8 11 1018.2 - 0.4 - Cloudy 10 - - - -
22/05:00am 11.6 NNE 8 10 1018.1 - 0.4 - Partly cloudy 10 - - - -
22/04:30am 10.9 NNE 7 9 1018.1 - 0.4 - - 10 - - - -
22/04:00am 10.9 NNE 7 9 1018.1 - 0.4 - - 10 - - - -
22/03:30am 11.0 NNE 7 9 1018.1 - 0.4 - - 10 - - - -
22/03:00am 10.8 NNE 6 8 1018.2 - 0.4 Recent precip. - 10 - - - -
22/02:30am 11.4 NNE 7 8 1018.4 - 0.2 - Partly cloudy 10 - - - -
22/02:00am 10.9 NNE 6 8 1018.3 - 0.2 - - 10 - - - -
22/01:30am 11.0 NNE 7 8 1018.4 - 0.2 - Partly cloudy 10 - - - -
22/01:00am 11.3 NNE 7 9 1018.4 - 0.2 - - 10 - - - -
22/12:30am 11.2 NNE 7 8 1018.5 - 0.2 - Partly cloudy 10 - - - -
22/12:00am 11.2 NNE 7 8 1018.5 - 0.2 - Partly cloudy 10 - - - -
 
Date/Time
EST
Temp
°C
Wind Pressure Rain since
9am
mm
Weather Cloud Vis
km
Sea
Height
m
Swell
Dir  Spd
kts
Gust
kts
hPa Trend Height
m
Period
s
Dir
21/11:30pm 11.5 NNE 6 8 1018.6 - 0.2 - Partly cloudy 10 - - - -
21/11:00pm 11.6 NNE 7 8 1018.5 - 0.2 - Partly cloudy 10 - - - -
21/10:30pm 11.6 NNE 7 8 1018.6 - 0.2 - - 10 - - - -
21/10:00pm 11.8 NNE 7 8 1018.7 - 0.2 - Partly cloudy 10 - - - -
21/09:30pm 11.8 NNE 5 6 1018.8 - 0.2 - Partly cloudy 10 - - - -
21/09:00pm 12.4 NNE 6 6 1018.6 - 0.2 - - 10 - - - -
21/08:30pm 13.0 NNE 6 7 1018.3 - 0.2 - - 10 - - - -
21/08:00pm 13.0 N 7 9 1018.1 - 0.2 - Partly cloudy 10 - - - -
21/07:30pm 13.7 N 6 8 1018.0 - 0.2 - Partly cloudy 10 - - - -
21/07:00pm 13.9 N 6 8 1017.9 - 0.2 - Partly cloudy 8 - - - -
21/06:30pm 14.3 N 7 9 1017.6 - 0.2 - Partly cloudy 9 - - - -
21/06:00pm 14.5 NNW 8 11 1017.5 - 0.2 - Cloudy 9 - - - -
21/05:30pm 14.6 NNW 10 13 1017.2 - 0.2 - Partly cloudy 10 - - - -
21/05:23pm 14.6 NW 10 13 1017.1 - 0.2 - Partly cloudy 10 - - - -
21/05:00pm 14.7 NNW 10 14 1017.0 - 0.2 - Partly cloudy 10 - - - -
21/04:47pm 14.6 NNW 10 13 1016.9 - 0.2 - Partly cloudy 10 - - - -
21/04:38pm 14.6 NNW 10 13 1016.8 - 0.2 - Partly cloudy 10 - - - -
21/04:30pm 14.7 NNW 10 12 1016.7 - 0.2 - Partly cloudy 10 - - - -
21/04:22pm 14.7 NNW 9 12 1016.7 - 0.2 - Partly cloudy 10 - - - -
21/04:00pm 14.7 NNW 11 14 1016.6 - 0.2 - Partly cloudy 10 - - - -
21/03:30pm 15.1 NNW 12 16 1016.5 - 0.2 - Partly cloudy 10 - - - -
21/03:00pm 15.0 NNW 9 12 1016.2 - 0.2 Recent precip. Mostly cloudy 10 - - - -
21/02:39pm 14.5 NNW 10 12 1016.2 - 0.2 - Partly cloudy 10 - - - -
21/02:30pm 14.5 NNW 9 11 1016.2 - 0.2 - Partly cloudy 6 - - - -
21/02:23pm 14.6 NNW 10 12 1016.1 - 0.2 - Partly cloudy 5 - - - -
21/02:00pm 15.2 N 7 9 1016.1 - 0.0 - Partly cloudy 10 - - - -
21/01:30pm 14.7 N 5 7 1016.0 - 0.0 - Cloudy 10 - - - -
21/01:00pm 14.7 N 6 7 1016.2 - 0.0 - Cloudy 10 - - - -
21/12:30pm 14.6 NNE 6 8 1016.3 - 0.0 - Partly cloudy 10 - - - -
21/12:00pm 14.4 NNE 6 8 1016.6 - 0.0 - Cloudy 10 - - - -
21/11:30am 14.4 N 6 9 1017.0 - 0.0 - Partly cloudy 10 - - - -
21/11:00am 14.4 NNE 5 7 1017.2 - 0.0 - Cloudy 10 - - - -
21/10:30am 14.8 NNE 4 6 1017.1 - 0.0 - Partly cloudy 10 - - - -
21/10:00am 13.5 NNE 7 10 1017.0 - 0.0 - Partly cloudy 10 - - - -
21/09:30am 12.8 NE 5 7 1017.1 - 0.0 - - 10 - - - -
21/09:00am 12.8 NE 6 7 1017.0 - 3.6 - - 10 - - - -
21/08:30am 11.1 NE 7 8 1017.1 - 3.6 - - 10 - - - -
21/08:00am 10.7 NNE 6 8 1016.9 - 3.6 - Cloudy 10 - - - -
21/07:30am 10.1 N 7 8 1016.9 - 3.6 - Cloudy 10 - - - -
21/07:00am 9.9 N 5 6 1016.8 - 3.6 - Cloudy 10 - - - -
21/06:30am 10.0 NNE 6 8 1016.7 - 3.6 - Partly cloudy 10 - - - -
21/06:00am 9.6 NNE 7 8 1016.7 - 3.6 - - 10 - - - -
21/05:30am 9.5 NNE 6 8 1016.7 - 3.6 - - 10 - - - -
21/05:00am 9.5 NNE 6 8 1016.6 - 3.6 - - 10 - - - -
21/04:30am 9.6 NNE 6 7 1016.6 - 3.6 - - 10 - - - -
21/04:00am 9.7 NNE 6 8 1016.5 - 3.6 - - 10 - - - -
21/03:30am 9.9 NNE 7 9 1016.5 - 3.6 - - 10 - - - -
21/03:00am 10.2 NNE 7 9 1016.7 - 3.6 - Partly cloudy 10 - - - -
21/02:30am 9.4 NNE 5 7 1016.9 - 3.6 - Partly cloudy 10 - - - -
21/02:00am 9.6 NNE 6 8 1016.9 - 3.6 - - 10 - - - -
21/01:30am 9.7 NNE 7 8 1017.1 - 3.6 - Partly cloudy 10 - - - -
21/01:00am 9.8 NNE 7 8 1017.0 - 3.6 - - 10 - - - -
21/12:30am 10.2 NNE 6 8 1016.7 - 3.6 - - 10 - - - -
21/12:00am 10.4 NNE 7 9 1016.9 - 3.6 Recent precip. - 10 - - - -
 
Date/Time
EST
Temp
°C
Wind Pressure Rain since
9am
mm
Weather Cloud Vis
km
Sea
Height
m
Swell
Dir  Spd
kts
Gust
kts
hPa Trend Height
m
Period
s
Dir
20/11:30pm 10.2 NNE 7 8 1017.0 - 3.6 - - 10 - - - -
20/11:00pm 10.2 NNE 7 9 1017.0 - 3.4 - - 10 - - - -
20/10:30pm 9.8 NNE 5 6 1017.0 - 3.4 - - 10 - - - -
20/10:00pm 10.4 NE 5 7 1017.0 - 3.4 - - 10 - - - -
20/09:30pm 10.7 NNE 7 9 1017.0 - 3.4 - - 10 - - - -
20/09:00pm 10.5 NNE 6 7 1016.8 - 3.4 - - 10 - - - -
20/08:30pm 11.3 NE 5 6 1016.7 - 3.4 - - 10 - - - -
20/08:00pm 11.2 N 4 6 1016.5 - 3.4 - Partly cloudy 10 - - - -
20/07:30pm 11.1 S 3 4 1016.1 - 3.4 - Partly cloudy 10 - - - -
20/07:00pm 11.7 NE 4 5 1015.8 - 3.4 - Partly cloudy 10 - - - -
20/06:30pm 11.9 CALM 0 0 1015.7 - 3.4 - Partly cloudy 10 - - - -
20/06:01pm 12.0 ENE 1 3 1015.4 - 3.4 - Partly cloudy 10 - - - -
20/06:00pm 11.9 NE 1 3 1015.4 - 3.4 - Cloudy 10 - - - -
20/05:30pm 12.0 SE 1 5 1015.2 - 3.4 - Partly cloudy 0.7 - - - -
20/05:03pm 12.4 CALM 0 2 1015.2 - 3.4 - Partly cloudy 5 - - - -
20/05:00pm 12.4 NE 1 4 1015.2 - 3.4 - Partly cloudy 8 - - - -
20/04:30pm 12.7 ENE 4 5 1015.2 - 3.4 - Cloudy 9 - - - -
20/04:00pm 12.7 CALM 0 0 1015.6 - 3.4 - Partly cloudy 10 - - - -
20/03:30pm 12.5 SE 4 5 1015.7 - 3.4 - Partly cloudy 10 - - - -
20/03:00pm 12.5 CALM 0 1 1015.9 - 3.2 Recent precip. Cloudy 10 - - - -
20/02:30pm 12.3 SSE 2 5 1015.7 - 3.0 - Partly cloudy 8 - - - -
20/02:00pm 12.3 SSW 4 6 1015.5 - 2.4 - Cloudy 10 - - - -
20/01:30pm 12.4 S 5 7 1015.5 - 2.0 - Cloudy 10 - - - -
20/01:00pm 12.3 SE 7 10 1015.5 - 1.6 - Cloudy 10 - - - -
20/12:30pm 12.4 SSE 7 9 1016.0 - 1.2 - Cloudy 10 - - - -
20/12:00pm 12.6 S 7 8 1016.3 - 0.8 Rain Cloudy 10 - - - -
20/11:30am 12.9 SSE 5 6 1016.8 - 0.2 - Partly cloudy 10 - - - -
20/11:00am 13.3 SSE 7 8 1017.0 - 0.0 - Cloudy 10 - - - -
20/10:30am 13.3 SSE 9 12 1017.4 - 0.0 - Cloudy 10 - - - -
20/10:00am 13.4 S 6 9 1017.5 - 0.0 - Partly cloudy 10 - - - -
20/09:30am 12.9 SSE 8 11 1017.7 - 0.0 - Partly cloudy 10 - - - -
20/09:00am 13.3 ENE 5 7 1017.7 - 0.6 - Cloudy 10 - - - -
20/08:30am 13.6 ENE 6 11 1017.9 - 0.6 - Cloudy 10 - - - -
20/08:00am 12.8 S 3 6 1017.9 - 0.6 - Partly cloudy 10 - - - -
20/07:30am 13.9 S 9 13 1017.6 - 0.6 - - 10 - - - -
20/07:00am 12.2 WSW 9 11 1017.7 - 0.6 - - 10 - - - -
20/06:30am 11.6 S 6 7 1017.5 - 0.6 - - 10 - - - -
20/06:00am 12.0 SSE 5 8 1017.8 - 0.6 - Cloudy 10 - - - -
20/05:30am 12.6 S 8 10 1017.9 - 0.6 - Cloudy 10 - - - -
20/05:00am 11.3 SSE 4 5 1017.9 - 0.6 - Partly cloudy 10 - - - -
20/04:30am 11.3 SE 5 6 1017.9 - 0.6 - Cloudy 10 - - - -
20/04:00am 11.6 SSE 10 13 1018.0 - 0.6 - Partly cloudy 10 - - - -
20/03:30am 11.6 SE 9 11 1018.4 - 0.2 - Partly cloudy 10 - - - -

Other Formats:

Comma delimited format used in spreadsheet applications
http://www.bom.gov.au/fwo/IDT60701/IDT60701.94956.axf

JavaScript Object Notation format (JSON) in row-major order
http://www.bom.gov.au/fwo/IDT60701/IDT60701.94956.json